Time;durP1;ratioP1;P1;durP2;ratioP2;P2;SDS_P1;SDS_P2;PMS_P1;PMS_P2;Temp;Humidity;BMP_temperature;BMP_pressure;BME280_temperature;BME280_humidity;BME280_pressure;Samples;Min_cycle;Max_cycle;Signal;HPM_P1;HPM_P2
2024/04/14 00:00:41;;;;;;;;;;;;;;;30.73;25.85;98549.66;5444138;26;20418;-81
2024/04/14 00:03:08;;;;;;;;;;;;;;;30.49;26.25;98542.94;5441119;26;20329;-82
2024/04/14 00:05:35;;;;;;;;;;;;;;;30.41;25.99;98544.47;5438371;26;19940;-81
2024/04/14 00:08:03;;;;;;;;;;;;;;;30.35;26.62;98537.06;5448478;26;19961;-81
2024/04/14 00:10:29;;;;;;;;;;;;;;;30.44;26.08;98535.06;5443142;26;19941;-82
2024/04/14 00:12:55;;;;;;;;;;;;;;;30.53;25.75;98535.09;5449589;26;19960;-81
2024/04/14 00:15:21;;;;;;;;;;;;;;;30.54;25.99;98539.50;5452227;26;20380;-81
2024/04/14 00:17:47;;;;;;;;;;;;;;;30.67;25.93;98542.22;5448951;26;19933;-81
2024/04/14 00:20:13;;;;;;;;;;;;;;;30.75;25.64;98538.63;5438955;26;19929;-82
2024/04/14 00:22:39;;;;;;;;;;;;;;;30.74;25.56;98534.19;5451173;26;19952;-81
2024/04/14 00:25:05;;;;;;;;;;;;;;;30.74;25.85;98533.41;5450167;26;20268;-81
2024/04/14 00:27:31;;;;;;;;;;;;;;;30.75;25.61;98530.13;5449723;26;19935;-81
2024/04/14 00:29:57;;;;;;;;;;;;;;;30.73;25.72;98518.47;5447977;26;19935;-82
2024/04/14 00:32:23;;;;;;;;;;;;;;;30.58;25.75;98517.47;5451234;26;19935;-82
2024/04/14 00:34:53;;;;;;;;;;;;;;;30.29;26.14;98516.25;5451557;26;19951;-82
2024/04/14 00:37:19;;;;;;;;;;;;;;;30.35;26.21;98508.72;5419595;26;19936;-82
2024/04/14 00:39:45;;;;;;;;;;;;;;;30.49;26.18;98502.47;5441239;26;19945;-81
2024/04/14 00:42:11;;;;;;;;;;;;;;;30.65;25.79;98497.31;5452064;26;19986;-81
2024/04/14 00:44:37;;;;;;;;;;;;;;;30.58;25.82;98497.63;5449157;26;19929;-81
2024/04/14 00:47:04;;;;;;;;;;;;;;;30.46;26.26;98486.41;5450192;26;19960;-81
2024/04/14 00:49:30;;;;;;;;;;;;;;;30.06;26.64;98489.22;5439856;26;19929;-82
2024/04/14 00:52:01;;;;;;;;;;;;;;;29.98;26.76;98479.44;5440648;26;19929;-82
2024/04/14 00:54:28;;;;;;;;;;;;;;;30.23;26.40;98479.22;5449776;26;19929;-82
2024/04/14 00:56:54;;;;;;;;;;;;;;;30.31;26.20;98474.84;5447667;26;19948;-82
2024/04/14 00:59:20;;;;;;;;;;;;;;;30.18;26.17;98474.16;5444987;26;19929;-82
2024/04/14 01:01:46;;;;;;;;;;;;;;;30.22;26.19;98471.19;5444389;26;20334;-81
2024/04/14 01:04:12;;;;;;;;;;;;;;;30.35;26.19;98471.91;5445303;26;19952;-81
2024/04/14 01:06:38;;;;;;;;;;;;;;;30.50;25.86;98462.31;5451049;26;20372;-81
2024/04/14 01:09:04;;;;;;;;;;;;;;;30.57;26.18;98462.03;5450637;26;19936;-81
2024/04/14 01:11:30;;;;;;;;;;;;;;;30.60;26.10;98461.09;5454557;26;19928;-81
2024/04/14 01:13:56;;;;;;;;;;;;;;;30.45;25.75;98454.47;5450243;26;19929;-82
2024/04/14 01:16:22;;;;;;;;;;;;;;;30.22;26.18;98446.50;5454594;26;20277;-81
2024/04/14 01:18:49;;;;;;;;;;;;;;;30.21;26.00;98439.25;5453920;26;19929;-81
2024/04/14 01:21:17;;;;;;;;;;;;;;;30.24;26.38;98440.34;5455114;26;20330;-81
2024/04/14 01:23:43;;;;;;;;;;;;;;;30.18;26.75;98445.84;5433356;26;20006;-81
2024/04/14 01:26:09;;;;;;;;;;;;;;;29.92;26.68;98433.19;5452079;26;19936;-82
2024/04/14 01:28:35;;;;;;;;;;;;;;;29.81;26.65;98435.63;5455163;26;20348;-82
2024/04/14 01:31:01;;;;;;;;;;;;;;;29.97;26.54;98430.50;5438961;26;19928;-82
2024/04/14 01:33:27;;;;;;;;;;;;;;;29.69;27.00;98444.97;5454306;26;19977;-81
2024/04/14 01:35:53;;;;;;;;;;;;;;;29.82;26.83;98440.84;5438438;26;19929;-82
2024/04/14 01:38:19;;;;;;;;;;;;;;;29.87;26.52;98439.44;5443717;26;19936;-81
2024/04/14 01:40:45;;;;;;;;;;;;;;;30.08;26.71;98436.50;5449028;26;19947;-81
2024/04/14 01:43:11;;;;;;;;;;;;;;;29.90;26.92;98433.63;5424155;26;19929;-81
2024/04/14 01:45:38;;;;;;;;;;;;;;;30.01;26.53;98433.97;5447838;26;19936;-82
2024/04/14 01:48:04;;;;;;;;;;;;;;;30.07;26.59;98429.28;5443845;26;19929;-82
2024/04/14 01:50:30;;;;;;;;;;;;;;;30.00;26.81;98429.59;5446497;26;19935;-82
2024/04/14 01:52:56;;;;;;;;;;;;;;;29.91;27.11;98423.09;5451126;26;19935;-82
2024/04/14 01:55:23;;;;;;;;;;;;;;;29.84;26.62;98427.00;5438004;26;19956;-81
2024/04/14 01:57:49;;;;;;;;;;;;;;;29.90;26.68;98419.47;5440038;26;19932;-82
2024/04/14 02:00:15;;;;;;;;;;;;;;;29.96;26.77;98428.16;5455650;26;19932;-82
2024/04/14 02:02:41;;;;;;;;;;;;;;;30.09;27.03;98426.78;5454274;26;20367;-81
2024/04/14 02:05:07;;;;;;;;;;;;;;;30.23;26.49;98422.56;5429119;26;19953;-81
2024/04/14 02:07:33;;;;;;;;;;;;;;;30.35;26.32;98421.69;5433337;26;19937;-82
2024/04/14 02:10:02;;;;;;;;;;;;;;;30.20;26.24;98422.72;5454883;26;20001;-82
2024/04/14 02:12:29;;;;;;;;;;;;;;;30.34;26.08;98419.34;5436431;26;20269;-82
2024/04/14 02:14:55;;;;;;;;;;;;;;;30.53;25.93;98413.22;5447512;26;20423;-81
2024/04/14 02:17:21;;;;;;;;;;;;;;;30.59;25.50;98413.38;5443338;26;19929;-82
2024/04/14 02:19:47;;;;;;;;;;;;;;;30.36;26.19;98406.28;5431576;26;19937;-81
2024/04/14 02:22:13;;;;;;;;;;;;;;;30.23;26.26;98410.44;5440103;26;19937;-82
2024/04/14 02:24:40;;;;;;;;;;;;;;;30.42;26.16;98400.75;5429674;26;19937;-81
2024/04/14 02:27:06;;;;;;;;;;;;;;;30.46;25.96;98398.56;5454411;26;20249;-81
2024/04/14 02:29:32;;;;;;;;;;;;;;;30.17;25.77;98392.50;5442286;26;19936;-81
2024/04/14 02:31:58;;;;;;;;;;;;;;;30.37;26.18;98393.66;5454838;26;20278;-82
2024/04/14 02:34:24;;;;;;;;;;;;;;;30.15;26.47;98389.34;5449045;26;19929;-82
2024/04/14 02:36:50;;;;;;;;;;;;;;;30.15;26.28;98380.84;5441702;26;19928;-82
2024/04/14 02:39:16;;;;;;;;;;;;;;;30.42;26.18;98387.38;5452017;26;19936;-82
2024/04/14 02:41:42;;;;;;;;;;;;;;;30.22;25.98;98381.34;5422435;26;19940;-82
2024/04/14 02:44:09;;;;;;;;;;;;;;;30.38;25.72;98383.94;5442957;26;19944;-82
2024/04/14 02:46:36;;;;;;;;;;;;;;;30.17;25.99;98375.50;5444878;26;19928;-81
2024/04/14 02:49:02;;;;;;;;;;;;;;;30.13;26.44;98367.13;5438833;26;19936;-82
2024/04/14 02:51:28;;;;;;;;;;;;;;;30.31;26.36;98374.91;5437744;26;19932;-82
2024/04/14 02:53:54;;;;;;;;;;;;;;;30.03;26.29;98369.19;5443549;26;19935;-82
2024/04/14 02:56:21;;;;;;;;;;;;;;;30.04;26.56;98369.94;5436834;26;19936;-82
2024/04/14 02:58:47;;;;;;;;;;;;;;;30.23;26.64;98365.91;5450976;26;19934;-82
2024/04/14 03:01:16;;;;;;;;;;;;;;;30.47;26.25;98364.09;5451235;26;19928;-82
2024/04/14 03:03:44;;;;;;;;;;;;;;;30.35;26.50;98365.03;5452570;26;20375;-82
2024/04/14 03:06:10;;;;;;;;;;;;;;;30.17;26.29;98364.19;5450883;26;19936;-82
2024/04/14 03:08:36;;;;;;;;;;;;;;;30.40;26.11;98360.78;5441982;26;19937;-82
2024/04/14 03:11:02;;;;;;;;;;;;;;;30.49;25.88;98360.78;5423240;26;20382;-82
2024/04/14 03:13:29;;;;;;;;;;;;;;;30.64;26.15;98354.00;5431854;26;19928;-82
2024/04/14 03:15:55;;;;;;;;;;;;;;;30.51;25.62;98361.09;5447062;26;19932;-82
2024/04/14 03:18:21;;;;;;;;;;;;;;;30.48;26.31;98357.16;5449452;26;19971;-82
2024/04/14 03:20:57;;;;;;;;;;;;;;;30.38;26.07;98358.41;5442729;26;20267;-82
2024/04/14 03:23:23;;;;;;;;;;;;;;;30.45;26.14;98346.78;5427161;26;19937;-82
2024/04/14 03:25:50;;;;;;;;;;;;;;;30.50;26.43;98343.28;5440402;26;19981;-82
2024/04/14 03:28:16;;;;;;;;;;;;;;;30.61;26.26;98345.66;5408488;26;21572;-81
2024/04/14 03:30:42;;;;;;;;;;;;;;;30.70;25.90;98337.97;5423410;26;19929;-82
2024/04/14 03:33:08;;;;;;;;;;;;;;;30.84;25.65;98344.22;5443601;26;19935;-82
2024/04/14 03:35:34;;;;;;;;;;;;;;;31.05;25.46;98337.63;5453791;26;19964;-82
2024/04/14 03:38:00;;;;;;;;;;;;;;;31.00;25.46;98336.22;5453382;26;19936;-82
2024/04/14 03:40:27;;;;;;;;;;;;;;;30.86;25.71;98328.31;5459289;26;20297;-82
2024/04/14 03:42:53;;;;;;;;;;;;;;;30.72;25.50;98326.13;5451148;26;19928;-82
2024/04/14 03:45:22;;;;;;;;;;;;;;;30.62;25.82;98322.50;5453364;26;19929;-82
2024/04/14 03:47:48;;;;;;;;;;;;;;;30.67;25.95;98319.06;5450153;26;20344;-82
2024/04/14 03:50:14;;;;;;;;;;;;;;;30.66;25.60;98328.03;5453662;26;19972;-82
2024/04/14 03:52:40;;;;;;;;;;;;;;;30.25;26.73;98325.78;5448828;26;19944;-82
2024/04/14 03:55:06;;;;;;;;;;;;;;;30.22;26.55;98326.72;5452729;26;19977;-82
2024/04/14 03:57:32;;;;;;;;;;;;;;;30.32;26.05;98326.25;5448457;26;19937;-82
2024/04/14 03:59:58;;;;;;;;;;;;;;;30.60;25.84;98319.38;5444684;26;19928;-81
2024/04/14 04:02:24;;;;;;;;;;;;;;;30.82;25.70;98315.56;5452557;26;19931;-82
2024/04/14 04:04:50;;;;;;;;;;;;;;;30.83;25.47;98312.25;5438087;26;20002;-82
2024/04/14 04:07:16;;;;;;;;;;;;;;;30.86;25.51;98313.34;5453633;26;20001;-82
2024/04/14 04:09:42;;;;;;;;;;;;;;;30.91;25.33;98313.53;5445873;26;19940;-82
2024/04/14 04:12:08;;;;;;;;;;;;;;;31.07;25.47;98312.41;5451809;26;19935;-82
2024/04/14 04:14:34;;;;;;;;;;;;;;;31.03;25.52;98306.91;5452183;26;19943;-82
2024/04/14 04:17:00;;;;;;;;;;;;;;;31.03;25.72;98309.75;5435567;26;19936;-82
2024/04/14 04:19:26;;;;;;;;;;;;;;;31.12;25.86;98304.03;5450840;26;20000;-82
2024/04/14 04:21:52;;;;;;;;;;;;;;;31.14;25.40;98303.56;5442988;26;19990;-82
2024/04/14 04:24:19;;;;;;;;;;;;;;;31.16;25.75;98301.81;5452409;26;19933;-82
2024/04/14 04:26:45;;;;;;;;;;;;;;;31.17;25.50;98294.09;5451831;26;19928;-82
2024/04/14 04:29:11;;;;;;;;;;;;;;;31.11;25.51;98293.94;5451915;26;19952;-82
2024/04/14 04:31:37;;;;;;;;;;;;;;;31.22;25.54;98293.47;5470584;26;20344;-81
2024/04/14 04:34:03;;;;;;;;;;;;;;;31.29;25.39;98288.22;5452783;26;19952;-82
2024/04/14 04:36:29;;;;;;;;;;;;;;;31.37;25.30;98292.28;5452769;26;19935;-82
2024/04/14 04:38:59;;;;;;;;;;;;;;;31.23;26.00;98278.00;5452984;26;19929;-82
2024/04/14 04:41:25;;;;;;;;;;;;;;;31.28;25.91;98277.34;5421813;26;19975;-81
2024/04/14 04:43:51;;;;;;;;;;;;;;;31.46;25.35;98276.53;5437622;26;19933;-82
2024/04/14 04:46:18;;;;;;;;;;;;;;;31.63;25.38;98281.31;5422266;26;20395;-81
2024/04/14 04:48:44;;;;;;;;;;;;;;;31.76;25.20;98264.06;5440974;26;20019;-81
2024/04/14 04:51:10;;;;;;;;;;;;;;;32.00;25.11;98259.19;5450770;26;19928;-82
2024/04/14 04:53:36;;;;;;;;;;;;;;;32.09;24.83;98264.81;5442115;26;19936;-82
2024/04/14 04:56:02;;;;;;;;;;;;;;;32.01;25.44;98269.28;5455683;26;19936;-81
2024/04/14 04:58:28;;;;;;;;;;;;;;;32.02;25.43;98262.34;5456819;26;19928;-82
2024/04/14 05:00:57;;;;;;;;;;;;;;;32.02;26.07;98260.28;5456590;26;19975;-82
2024/04/14 05:03:23;;;;;;;;;;;;;;;32.03;25.70;98247.66;5453454;26;19940;-82
2024/04/14 05:05:53;;;;;;;;;;;;;;;31.76;25.96;98247.81;5456560;26;20447;-82
2024/04/14 05:08:19;;;;;;;;;;;;;;;31.51;26.27;98262.44;5436473;26;20366;-82
2024/04/14 05:10:45;;;;;;;;;;;;;;;31.40;27.36;98254.44;5455137;26;19935;-82
2024/04/14 05:13:11;;;;;;;;;;;;;;;31.67;26.82;98259.19;5453018;26;19940;-82
2024/04/14 05:15:37;;;;;;;;;;;;;;;31.67;26.76;98249.91;5453425;26;19940;-82
2024/04/14 05:18:03;;;;;;;;;;;;;;;31.98;26.71;98254.00;5460594;26;19996;-82
2024/04/14 05:20:29;;;;;;;;;;;;;;;31.85;25.63;98253.44;5454037;26;19928;-81
2024/04/14 05:22:56;;;;;;;;;;;;;;;32.24;26.68;98239.28;5465513;26;20293;-81
2024/04/14 05:25:22;;;;;;;;;;;;;;;32.27;26.28;98244.00;5451043;26;20004;-81
2024/04/14 05:27:48;;;;;;;;;;;;;;;32.63;27.61;98243.66;5447599;26;19935;-81
2024/04/14 05:30:14;;;;;;;;;;;;;;;33.01;26.33;98239.97;5445775;26;19997;-81
2024/04/14 05:32:40;;;;;;;;;;;;;;;32.94;27.16;98232.59;5452792;26;19936;-82
2024/04/14 05:35:06;;;;;;;;;;;;;;;33.01;26.21;98228.56;5447253;26;20337;-82
2024/04/14 05:37:32;;;;;;;;;;;;;;;32.99;25.65;98231.13;5450899;26;20355;-82
2024/04/14 05:39:58;;;;;;;;;;;;;;;33.25;26.27;98227.22;5451187;26;19929;-80
2024/04/14 05:42:24;;;;;;;;;;;;;;;33.54;26.30;98219.91;5442478;26;19936;-81
2024/04/14 05:44:50;;;;;;;;;;;;;;;33.76;24.69;98214.50;5429807;26;19929;-80
2024/04/14 05:47:16;;;;;;;;;;;;;;;33.82;25.49;98210.44;5447756;26;19935;-80
2024/04/14 05:49:42;;;;;;;;;;;;;;;33.87;25.22;98206.88;5449098;26;19937;-81
2024/04/14 05:52:08;;;;;;;;;;;;;;;33.90;24.53;98205.09;5451876;26;20376;-81
2024/04/14 05:54:34;;;;;;;;;;;;;;;33.76;24.35;98206.75;5453766;26;19928;-81
2024/04/14 05:57:00;;;;;;;;;;;;;;;33.81;24.68;98202.41;5442864;26;19928;-81
2024/04/14 05:59:26;;;;;;;;;;;;;;;33.73;24.57;98204.09;5452352;26;19935;-81
2024/04/14 06:01:52;;;;;;;;;;;;;;;33.69;24.00;98200.69;5448490;26;19936;-81
2024/04/14 06:04:18;;;;;;;;;;;;;;;33.73;24.06;98204.88;5454892;26;19952;-81
2024/04/14 06:06:45;;;;;;;;;;;;;;;33.93;24.04;98199.22;5418586;26;19937;-81
2024/04/14 06:09:11;;;;;;;;;;;;;;;34.03;24.11;98191.31;5419607;26;19935;-81
2024/04/14 06:11:37;;;;;;;;;;;;;;;34.42;23.92;98186.84;5442315;26;19936;-81
2024/04/14 06:14:03;;;;;;;;;;;;;;;34.61;23.03;98193.78;5417954;26;19956;-81
2024/04/14 06:16:29;;;;;;;;;;;;;;;34.34;23.20;98194.25;5415178;26;19935;-83
2024/04/14 06:18:55;;;;;;;;;;;;;;;33.87;24.16;98184.09;5446529;26;20267;-81
2024/04/14 06:21:21;;;;;;;;;;;;;;;34.27;23.63;98194.72;5446725;26;19960;-80
2024/04/14 06:23:48;;;;;;;;;;;;;;;34.30;23.61;98188.00;5451543;26;19928;-79
2024/04/14 06:26:14;;;;;;;;;;;;;;;34.30;23.77;98190.06;5450645;26;19929;-79
2024/04/14 06:28:40;;;;;;;;;;;;;;;34.53;23.23;98191.91;5451671;26;19997;-79
2024/04/14 06:31:06;;;;;;;;;;;;;;;33.94;24.67;98180.81;5450025;26;19929;-79
2024/04/14 06:33:32;;;;;;;;;;;;;;;33.79;23.92;98185.03;5445189;26;19937;-80
2024/04/14 06:35:58;;;;;;;;;;;;;;;33.90;23.91;98185.97;5447748;26;19947;-79
2024/04/14 06:38:24;;;;;;;;;;;;;;;34.12;23.87;98184.69;5451882;26;19998;-80
2024/04/14 06:40:50;;;;;;;;;;;;;;;34.50;24.29;98187.94;5440779;26;19933;-79
2024/04/14 06:43:16;;;;;;;;;;;;;;;34.15;24.50;98195.84;5442728;26;19928;-79
2024/04/14 06:45:45;;;;;;;;;;;;;;;34.67;23.72;98182.44;5450413;26;19936;-79
2024/04/14 06:48:11;;;;;;;;;;;;;;;34.78;23.77;98184.59;5450766;26;20374;-80
2024/04/14 06:50:37;;;;;;;;;;;;;;;34.53;22.93;98186.97;5451691;26;20288;-80
2024/04/14 06:53:04;;;;;;;;;;;;;;;34.48;23.52;98184.81;5450811;26;19964;-80
2024/04/14 06:55:30;;;;;;;;;;;;;;;35.10;23.22;98189.81;5444340;26;19984;-80
2024/04/14 06:57:56;;;;;;;;;;;;;;;34.92;23.27;98183.69;5439793;26;19982;-79
2024/04/14 07:00:22;;;;;;;;;;;;;;;35.46;22.16;98178.91;5438057;26;19929;-79
2024/04/14 07:02:48;;;;;;;;;;;;;;;35.36;22.08;98189.75;5454737;26;19940;-80
2024/04/14 07:05:14;;;;;;;;;;;;;;;35.59;21.76;98185.78;5446538;26;19937;-79
2024/04/14 07:07:40;;;;;;;;;;;;;;;35.69;22.19;98192.84;5438715;26;19929;-79
2024/04/14 07:10:07;;;;;;;;;;;;;;;36.02;21.81;98187.31;5451668;26;20001;-79
2024/04/14 07:12:34;;;;;;;;;;;;;;;35.70;21.41;98194.41;5444955;26;19936;-79
2024/04/14 07:15:00;;;;;;;;;;;;;;;35.69;22.35;98187.13;5447660;26;20263;-79
2024/04/14 07:17:28;;;;;;;;;;;;;;;36.03;21.79;98183.16;5450672;26;19928;-80
2024/04/14 07:19:54;;;;;;;;;;;;;;;35.86;21.75;98178.63;5450871;26;19931;-80
2024/04/14 07:22:20;;;;;;;;;;;;;;;36.45;21.17;98176.56;5445575;26;19997;-82
2024/04/14 07:24:46;;;;;;;;;;;;;;;36.80;21.07;98181.00;5446927;26;20363;-82
2024/04/14 07:27:12;;;;;;;;;;;;;;;36.33;21.58;98177.78;5448084;26;20259;-82
2024/04/14 07:29:38;;;;;;;;;;;;;;;36.06;20.92;98184.97;5441891;26;19936;-82
2024/04/14 07:32:05;;;;;;;;;;;;;;;36.41;20.82;98180.94;5450285;26;20256;-81
2024/04/14 07:34:31;;;;;;;;;;;;;;;36.13;21.58;98182.94;5439562;26;20413;-82
2024/04/14 07:36:59;;;;;;;;;;;;;;;36.11;21.28;98186.28;5451042;26;20026;-82
2024/04/14 07:39:25;;;;;;;;;;;;;;;36.26;21.35;98186.09;5451118;26;19929;-82
2024/04/14 07:41:51;;;;;;;;;;;;;;;36.35;21.07;98178.06;5421542;26;20264;-82
2024/04/14 07:44:17;;;;;;;;;;;;;;;36.50;21.00;98183.59;5450353;26;19952;-82
2024/04/14 07:46:43;;;;;;;;;;;;;;;36.53;21.28;98183.31;5446095;26;19928;-81
2024/04/14 07:49:09;;;;;;;;;;;;;;;36.79;21.47;98180.22;5449451;26;19932;-82
2024/04/14 07:51:35;;;;;;;;;;;;;;;37.14;21.13;98180.50;5451036;26;19996;-79
2024/04/14 07:54:01;;;;;;;;;;;;;;;37.13;21.00;98166.72;5449770;26;19935;-79
2024/04/14 07:56:27;;;;;;;;;;;;;;;37.10;20.37;98171.41;5451373;26;19928;-80
2024/04/14 07:58:53;;;;;;;;;;;;;;;37.19;21.04;98167.47;5451473;26;20264;-81
2024/04/14 08:01:19;;;;;;;;;;;;;;;37.36;21.14;98165.38;5449858;26;19932;-78
2024/04/14 08:03:45;;;;;;;;;;;;;;;36.62;20.59;98167.97;5450163;26;19935;-79
2024/04/14 08:06:11;;;;;;;;;;;;;;;35.32;21.38;98166.38;5439725;26;19936;-79
2024/04/14 08:08:38;;;;;;;;;;;;;;;35.17;21.49;98175.09;5442779;26;19945;-79
2024/04/14 08:11:07;;;;;;;;;;;;;;;35.89;21.51;98181.25;5445122;26;19928;-79
2024/04/14 08:13:33;;;;;;;;;;;;;;;35.13;21.46;98185.19;5448794;26;19952;-79
2024/04/14 08:15:59;;;;;;;;;;;;;;;35.28;21.45;98174.41;5443850;26;19997;-79
2024/04/14 08:18:25;;;;;;;;;;;;;;;35.78;21.58;98166.91;5449350;26;20015;-79
2024/04/14 08:21:00;;;;;;;;;;;;;;;36.37;21.21;98158.28;5446536;26;19936;-79
2024/04/14 08:23:26;;;;;;;;;;;;;;;35.58;21.78;98174.84;5435486;26;19940;-79
2024/04/14 08:25:52;;;;;;;;;;;;;;;36.28;21.05;98166.34;5445454;26;20005;-79
2024/04/14 08:28:19;;;;;;;;;;;;;;;36.88;20.97;98162.78;5412872;26;19936;-79
2024/04/14 08:30:45;;;;;;;;;;;;;;;37.18;20.04;98160.97;5443575;26;19943;-79
2024/04/14 08:33:11;;;;;;;;;;;;;;;36.34;19.88;98158.56;5449118;26;19973;-79
2024/04/14 08:35:37;;;;;;;;;;;;;;;35.32;21.64;98172.09;5440499;26;19929;-79
2024/04/14 08:38:03;;;;;;;;;;;;;;;36.10;21.88;98169.66;5449819;26;19928;-81
2024/04/14 08:40:29;;;;;;;;;;;;;;;36.62;20.67;98163.03;5439407;26;19936;-81
2024/04/14 08:42:55;;;;;;;;;;;;;;;36.02;20.88;98161.59;5449687;26;19937;-80
2024/04/14 08:45:22;;;;;;;;;;;;;;;35.90;20.83;98164.88;5452916;26;19928;-81
2024/04/14 08:47:53;;;;;;;;;;;;;;;35.81;21.52;98165.09;5452664;26;20375;-79
2024/04/14 08:50:23;;;;;;;;;;;;;;;35.47;21.05;98177.63;5449354;26;20260;-79
2024/04/14 08:52:49;;;;;;;;;;;;;;;35.26;21.42;98163.50;5409263;26;20538;-80
2024/04/14 08:55:15;;;;;;;;;;;;;;;33.89;22.56;98163.66;5414561;26;19944;-81
2024/04/14 08:57:42;;;;;;;;;;;;;;;34.72;21.89;98161.75;5436132;26;20364;-81
2024/04/14 09:00:12;;;;;;;;;;;;;;;35.12;20.94;98167.28;5448307;26;19956;-80
2024/04/14 09:02:42;;;;;;;;;;;;;;;35.34;20.74;98155.22;5452900;26;19943;-81
2024/04/14 09:05:09;;;;;;;;;;;;;;;35.27;21.61;98158.53;5446462;26;19936;-80
2024/04/14 09:07:36;;;;;;;;;;;;;;;34.74;21.05;98145.69;5449794;26;19936;-81
2024/04/14 09:10:04;;;;;;;;;;;;;;;34.60;21.22;98152.31;5447273;26;19965;-80
2024/04/14 09:12:33;;;;;;;;;;;;;;;34.42;21.77;98140.44;5445007;26;19936;-80
2024/04/14 09:14:59;;;;;;;;;;;;;;;34.94;21.57;98146.88;5442415;26;19937;-79
2024/04/14 09:17:25;;;;;;;;;;;;;;;33.98;22.09;98138.63;5416598;26;19997;-79
2024/04/14 09:19:51;;;;;;;;;;;;;;;35.17;21.16;98132.25;5449440;26;19939;-79
2024/04/14 09:22:20;;;;;;;;;;;;;;;35.09;20.48;98134.03;5448102;26;19929;-79
2024/04/14 09:24:46;;;;;;;;;;;;;;;34.97;20.67;98123.00;5446596;26;19928;-79
2024/04/14 09:27:12;;;;;;;;;;;;;;;35.35;20.33;98131.09;5445739;26;20017;-80
2024/04/14 09:29:38;;;;;;;;;;;;;;;35.63;20.69;98126.34;5447913;26;19952;-80
2024/04/14 09:32:05;;;;;;;;;;;;;;;34.71;21.10;98138.13;5449166;26;20363;-79
2024/04/14 09:34:36;;;;;;;;;;;;;;;35.02;20.88;98134.50;5418923;26;19928;-80
2024/04/14 09:37:02;;;;;;;;;;;;;;;35.13;21.47;98128.09;5454977;26;19936;-80
2024/04/14 09:39:29;;;;;;;;;;;;;;;34.97;21.17;98117.31;5452080;26;19933;-79
2024/04/14 09:41:56;;;;;;;;;;;;;;;34.69;22.74;98131.38;5447166;26;19932;-80
2024/04/14 09:44:25;;;;;;;;;;;;;;;35.25;21.47;98132.56;5451690;26;20001;-80
2024/04/14 09:46:51;;;;;;;;;;;;;;;34.39;22.07;98127.19;5450019;26;19928;-80
2024/04/14 09:49:17;;;;;;;;;;;;;;;33.49;22.56;98120.91;5447207;26;20386;-80
2024/04/14 09:51:45;;;;;;;;;;;;;;;33.64;22.64;98122.44;5440051;26;19986;-79
2024/04/14 09:54:14;;;;;;;;;;;;;;;33.28;23.13;98126.59;5452063;26;19934;-79
2024/04/14 09:56:40;;;;;;;;;;;;;;;33.65;23.79;98128.94;5409309;26;20152;-80
2024/04/14 09:59:06;;;;;;;;;;;;;;;34.22;23.99;98118.47;5448359;26;19939;-80
2024/04/14 10:01:35;;;;;;;;;;;;;;;34.79;21.82;98112.78;5446698;26;19928;-80
2024/04/14 10:04:02;;;;;;;;;;;;;;;34.37;24.08;98113.44;5409122;26;19929;-81
2024/04/14 10:06:29;;;;;;;;;;;;;;;35.09;22.19;98114.06;5442814;26;20339;-80
2024/04/14 10:08:55;;;;;;;;;;;;;;;34.68;21.31;98112.69;5446121;26;19935;-80
2024/04/14 10:11:24;;;;;;;;;;;;;;;33.66;23.46;98099.94;5445870;26;19928;-79
2024/04/14 10:13:51;;;;;;;;;;;;;;;33.60;22.10;98107.63;5450237;26;19936;-78
2024/04/14 10:16:18;;;;;;;;;;;;;;;34.02;23.86;98118.47;5446615;26;19929;-78
2024/04/14 10:18:44;;;;;;;;;;;;;;;33.77;24.77;98122.09;5442704;26;19929;-79
2024/04/14 10:21:17;;;;;;;;;;;;;;;33.39;24.67;98118.22;5442800;26;19948;-78
2024/04/14 10:23:45;;;;;;;;;;;;;;;33.37;23.85;98097.97;5447055;26;19928;-79
2024/04/14 10:26:15;;;;;;;;;;;;;;;32.67;26.50;98111.41;5450627;26;19935;-78
2024/04/14 10:28:48;;;;;;;;;;;;;;;33.19;24.40;98112.47;5450073;26;20253;-79
2024/04/14 10:31:23;;;;;;;;;;;;;;;34.22;23.16;98115.59;5446097;26;19943;-79
2024/04/14 10:33:59;;;;;;;;;;;;;;;34.22;23.10;98114.81;5451426;26;19936;-79
2024/04/14 10:36:26;;;;;;;;;;;;;;;32.61;25.80;98104.84;5443420;26;19936;-79
2024/04/14 10:38:53;;;;;;;;;;;;;;;32.83;24.40;98112.97;5441610;26;19940;-79
2024/04/14 10:41:20;;;;;;;;;;;;;;;33.49;24.05;98098.16;5449145;26;19929;-80
2024/04/14 10:43:46;;;;;;;;;;;;;;;34.14;23.63;98103.09;5452420;26;20304;-79
2024/04/14 10:46:12;;;;;;;;;;;;;;;33.98;24.42;98109.38;5457824;26;20392;-80
2024/04/14 10:48:45;;;;;;;;;;;;;;;33.47;23.58;98092.94;5447058;26;19940;-79
2024/04/14 10:51:11;;;;;;;;;;;;;;;34.02;23.22;98107.09;5447705;26;19936;-79
2024/04/14 10:53:37;;;;;;;;;;;;;;;32.41;25.58;98104.75;5443337;26;19935;-79
2024/04/14 10:56:04;;;;;;;;;;;;;;;33.77;23.98;98091.50;5452310;26;20374;-80
2024/04/14 10:58:30;;;;;;;;;;;;;;;33.85;24.00;98106.91;5453280;26;19939;-80
2024/04/14 11:00:56;;;;;;;;;;;;;;;33.72;22.96;98105.72;5453905;26;19943;-81
2024/04/14 11:03:25;;;;;;;;;;;;;;;34.38;22.74;98100.72;5436439;26;19929;-82
2024/04/14 11:05:52;;;;;;;;;;;;;;;33.44;24.13;98094.72;5437995;26;19935;-82
2024/04/14 11:08:19;;;;;;;;;;;;;;;34.28;23.25;98095.72;5451482;26;19961;-82
2024/04/14 11:10:46;;;;;;;;;;;;;;;33.89;23.39;98092.41;5449677;26;19936;-83
2024/04/14 11:13:16;;;;;;;;;;;;;;;33.61;24.14;98099.88;5418801;26;19940;-83
2024/04/14 11:15:45;;;;;;;;;;;;;;;34.21;22.75;98111.22;5411185;26;19937;-83
2024/04/14 11:18:11;;;;;;;;;;;;;;;33.12;23.63;98101.53;5413529;26;19940;-81
2024/04/14 11:20:46;;;;;;;;;;;;;;;33.81;23.54;98097.00;5447290;26;19997;-80
2024/04/14 11:23:12;;;;;;;;;;;;;;;34.17;23.02;98118.41;5448561;26;19929;-80
2024/04/14 11:25:38;;;;;;;;;;;;;;;33.64;24.35;98096.03;5449582;26;19940;-80
2024/04/14 11:28:04;;;;;;;;;;;;;;;33.67;23.82;98095.81;5417641;26;19935;-80
2024/04/14 11:30:30;;;;;;;;;;;;;;;34.64;23.01;98095.81;5450569;26;19937;-80
2024/04/14 11:32:57;;;;;;;;;;;;;;;35.23;22.21;98089.47;5451716;26;19928;-80
2024/04/14 11:35:24;;;;;;;;;;;;;;;35.26;21.88;98089.25;5452591;26;20309;-80
2024/04/14 11:37:53;;;;;;;;;;;;;;;34.84;21.47;98085.59;5447174;26;19929;-79
2024/04/14 11:40:23;;;;;;;;;;;;;;;34.66;21.92;98087.50;5407417;26;20372;-80
2024/04/14 11:42:49;;;;;;;;;;;;;;;33.85;22.67;98101.19;5451775;26;19943;-79
2024/04/14 11:45:16;;;;;;;;;;;;;;;34.13;22.58;98078.72;5448449;26;19951;-80
2024/04/14 11:47:42;;;;;;;;;;;;;;;34.29;22.97;98089.50;5446529;26;20378;-81
2024/04/14 11:50:08;;;;;;;;;;;;;;;34.47;22.64;98094.09;5448302;26;19936;-82
2024/04/14 11:52:34;;;;;;;;;;;;;;;33.74;24.60;98072.59;5445194;26;19996;-81
2024/04/14 11:55:02;;;;;;;;;;;;;;;33.41;22.56;98081.50;5441562;26;20280;-81
2024/04/14 11:57:28;;;;;;;;;;;;;;;33.54;23.59;98089.69;5436880;26;19949;-81
2024/04/14 11:59:54;;;;;;;;;;;;;;;34.03;22.05;98086.66;5432672;26;19937;-80
2024/04/14 12:02:21;;;;;;;;;;;;;;;33.92;22.84;98091.44;5438183;26;19935;-80
2024/04/14 12:04:48;;;;;;;;;;;;;;;33.83;23.58;98085.88;5441300;26;19944;-80
2024/04/14 12:07:14;;;;;;;;;;;;;;;34.44;22.25;98077.97;5447934;26;19944;-80
2024/04/14 12:09:40;;;;;;;;;;;;;;;34.39;22.54;98090.09;5441221;26;20033;-81
2024/04/14 12:12:06;;;;;;;;;;;;;;;33.78;23.30;98086.59;5443460;26;19944;-81
2024/04/14 12:14:32;;;;;;;;;;;;;;;34.43;22.60;98097.16;5445750;26;19929;-80
2024/04/14 12:16:59;;;;;;;;;;;;;;;34.06;22.67;98091.34;5435995;26;19944;-79
2024/04/14 12:19:26;;;;;;;;;;;;;;;33.56;23.44;98086.34;5436116;26;19929;-80
2024/04/14 12:21:52;;;;;;;;;;;;;;;34.40;23.03;98095.28;5446647;26;20304;-80
2024/04/14 12:24:21;;;;;;;;;;;;;;;34.28;22.60;98102.22;5439065;26;19982;-79
2024/04/14 12:26:48;;;;;;;;;;;;;;;33.49;23.94;98084.69;5444871;26;19928;-79
2024/04/14 12:29:14;;;;;;;;;;;;;;;32.79;24.73;98094.53;5440810;26;20442;-79
2024/04/14 12:31:40;;;;;;;;;;;;;;;32.74;25.13;98096.78;5415040;26;19938;-79
2024/04/14 12:34:06;;;;;;;;;;;;;;;32.62;25.66;98094.25;5444559;26;20083;-79
2024/04/14 12:36:32;;;;;;;;;;;;;;;32.96;24.90;98087.00;5439663;26;20368;-80
2024/04/14 12:38:58;;;;;;;;;;;;;;;33.34;24.84;98090.47;5434695;26;20391;-79
2024/04/14 12:41:24;;;;;;;;;;;;;;;35.09;23.40;98091.22;5442258;26;20368;-79
2024/04/14 12:43:50;;;;;;;;;;;;;;;35.01;23.22;98072.97;5439215;26;20160;-80